createdAt,value
2022-09-27T00:00:39.961Z,3.30
2022-09-27T00:03:44.880Z,1.98
2022-09-27T00:06:47.903Z,2.22
2022-09-27T00:09:50.819Z,1.75
2022-09-27T00:12:54.103Z,1.65
2022-09-27T00:15:58.583Z,2.45
2022-09-27T00:19:05.722Z,1.75
2022-09-27T00:22:09.254Z,2.08
2022-09-27T00:25:12.186Z,2.40
2022-09-27T00:28:15.106Z,2.55
2022-09-27T00:31:21.922Z,2.08
2022-09-27T00:34:27.281Z,2.15
2022-09-27T00:37:30.216Z,2.83
2022-09-27T00:40:33.205Z,2.40
2022-09-27T00:43:47.045Z,2.45
2022-09-27T00:46:57.359Z,1.40
2022-09-27T00:50:07.023Z,2.45
2022-09-27T00:53:16.829Z,2.22
2022-09-27T00:56:27.314Z,2.20
2022-09-27T00:59:35.159Z,1.50
2022-09-27T01:02:39.362Z,1.75
2022-09-27T01:05:44.060Z,2.47
2022-09-27T01:08:47.205Z,2.00
2022-09-27T01:11:55.655Z,2.08
2022-09-27T01:15:13.206Z,2.15
2022-09-27T01:18:27.266Z,1.85
2022-09-27T01:21:48.796Z,1.75
2022-09-27T01:25:03.815Z,1.92
2022-09-27T01:28:22.571Z,1.88
2022-09-27T01:31:35.128Z,1.48
2022-09-27T01:34:46.843Z,3.40
2022-09-27T01:37:59.713Z,1.52
2022-09-27T01:41:08.213Z,1.58
2022-09-27T01:44:38.328Z,2.72
2022-09-27T01:47:56.152Z,2.55
2022-09-27T01:51:31.479Z,2.13
2022-09-27T01:54:39.776Z,1.55
2022-09-27T01:58:15.731Z,1.60
2022-09-27T02:01:24.105Z,2.17
2022-09-27T02:04:32.538Z,1.58
2022-09-27T02:07:50.007Z,2.08
2022-09-27T02:10:56.281Z,3.03
2022-09-27T02:14:04.131Z,1.45
2022-09-27T02:17:26.321Z,3.33
2022-09-27T02:20:36.658Z,1.58
2022-09-27T02:23:44.987Z,2.28
2022-09-27T02:26:58.001Z,2.17
2022-09-27T02:30:06.095Z,1.65
2022-09-27T02:33:10.641Z,2.90
2022-09-27T02:36:15.362Z,2.42
2022-09-27T02:39:19.205Z,2.58
2022-09-27T02:42:26.848Z,2.53
2022-09-27T02:45:38.340Z,1.80
2022-09-27T02:48:53.807Z,1.65
2022-09-27T02:52:08.063Z,2.63
2022-09-27T02:55:19.880Z,2.08
2022-09-27T02:58:46.793Z,1.10
2022-09-27T03:02:13.984Z,1.30
2022-09-27T03:05:56.411Z,1.40
2022-09-27T03:09:00.768Z,1.65
2022-09-27T03:12:03.669Z,1.65
2022-09-27T03:15:07.239Z,2.10
2022-09-27T03:18:33.827Z,1.27
2022-09-27T03:22:09.867Z,1.45
2022-09-27T03:25:14.271Z,1.58
2022-09-27T03:28:17.759Z,2.92
2022-09-27T03:31:21.623Z,1.55
2022-09-27T03:34:43.057Z,2.00
2022-09-27T03:37:47.196Z,3.15
2022-09-27T03:40:51.759Z,1.50
2022-09-27T03:43:56.673Z,1.40
2022-09-27T03:47:00.142Z,2.20
2022-09-27T03:50:03.087Z,2.75
2022-09-27T03:53:06.074Z,1.25
2022-09-27T03:56:10.702Z,1.55
2022-09-27T03:59:14.218Z,1.55
2022-09-27T04:02:46.927Z,2.13
2022-09-27T04:06:00.380Z,1.45
2022-09-27T04:09:11.960Z,1.30
2022-09-27T04:12:36.579Z,1.30
2022-09-27T04:15:40.362Z,1.45
2022-09-27T04:19:02.739Z,1.10
2022-09-27T04:22:32.582Z,1.13
2022-09-27T04:25:35.659Z,1.77
2022-09-27T04:28:54.461Z,1.85
2022-09-27T04:31:57.810Z,1.58
2022-09-27T04:35:37.398Z,1.40
2022-09-27T04:38:40.550Z,1.88
2022-09-27T04:41:45.048Z,1.20
2022-09-27T04:44:49.895Z,1.40
2022-09-27T04:47:52.933Z,1.92
2022-09-27T04:50:59.638Z,2.53
2022-09-27T04:54:02.977Z,1.30
2022-09-27T04:57:09.417Z,1.75
2022-09-27T05:00:17.112Z,1.50
2022-09-27T05:03:24.646Z,1.73
2022-09-27T05:06:36.524Z,2.00
2022-09-27T05:09:54.224Z,1.40
2022-09-27T05:12:57.171Z,1.10
2022-09-27T05:16:05.234Z,2.53
2022-09-27T05:19:31.227Z,1.35
2022-09-27T05:22:56.919Z,1.85
2022-09-27T05:26:05.125Z,1.30
2022-09-27T05:29:08.453Z,1.92
2022-09-27T05:32:13.828Z,1.30
2022-09-27T05:35:19.188Z,1.35
2022-09-27T05:38:22.219Z,1.30
2022-09-27T05:41:27.011Z,1.60
2022-09-27T05:44:30.735Z,1.92
2022-09-27T05:47:37.510Z,2.08
2022-09-27T05:50:40.916Z,1.48
2022-09-27T05:53:43.907Z,1.65
2022-09-27T05:56:58.471Z,1.25
2022-09-27T06:00:10.956Z,1.20
2022-09-27T06:03:19.000Z,1.48
2022-09-27T06:06:40.576Z,0.93
2022-09-27T06:09:45.043Z,1.83
2022-09-27T06:12:50.280Z,2.38
2022-09-27T06:16:12.798Z,2.17
2022-09-27T06:19:19.639Z,1.63
2022-09-27T06:22:24.739Z,1.33
2022-09-27T06:25:35.219Z,1.73
2022-09-27T06:28:51.228Z,1.45
2022-09-27T06:31:56.861Z,1.23
2022-09-27T06:35:26.214Z,1.10
2022-09-27T06:38:29.407Z,2.38
2022-09-27T06:41:57.868Z,1.98
2022-09-27T06:45:20.302Z,1.75
2022-09-27T06:48:42.585Z,1.67
2022-09-27T06:51:55.454Z,2.58
2022-09-27T06:54:58.956Z,1.25
2022-09-27T06:58:20.665Z,1.33
2022-09-27T07:02:01.968Z,1.35
2022-09-27T07:05:13.954Z,1.13
2022-09-27T07:08:36.136Z,1.38
2022-09-27T07:11:39.143Z,1.20
2022-09-27T07:14:42.517Z,1.23
2022-09-27T07:17:50.267Z,1.30
2022-09-27T07:20:56.890Z,1.65
2022-09-27T07:24:05.125Z,1.20
2022-09-27T07:27:09.819Z,1.50
2022-09-27T07:30:14.045Z,2.17
2022-09-27T07:33:17.154Z,1.42
2022-09-27T07:36:20.123Z,1.45
2022-09-27T07:39:25.064Z,1.45
2022-09-27T07:42:28.797Z,1.48
2022-09-27T07:45:33.368Z,1.23
2022-09-27T07:48:38.942Z,1.70
2022-09-27T07:51:59.887Z,1.20
2022-09-27T07:55:13.932Z,3.35
2022-09-27T07:58:32.978Z,1.65
2022-09-27T08:01:40.497Z,1.63
2022-09-27T08:04:44.130Z,1.58
2022-09-27T08:07:47.276Z,1.75
2022-09-27T08:10:51.637Z,1.40
2022-09-27T08:13:57.078Z,2.20
2022-09-27T08:17:05.168Z,3.13
2022-09-27T08:20:28.458Z,2.22
2022-09-27T08:23:43.875Z,1.85
2022-09-27T08:26:56.024Z,2.22
2022-09-27T08:30:11.293Z,2.95
2022-09-27T08:33:14.829Z,3.97
2022-09-27T08:36:18.166Z,2.60
2022-09-27T08:39:22.477Z,2.13
2022-09-27T08:42:40.224Z,2.17
2022-09-27T08:45:56.784Z,3.72
2022-09-27T08:49:05.944Z,5.97
2022-09-27T08:52:19.097Z,6.45
2022-09-27T08:55:29.384Z,4.10
2022-09-27T08:58:37.051Z,3.40
2022-09-27T09:01:46.731Z,2.35
2022-09-27T09:05:00.221Z,1.80
2022-09-27T09:08:22.838Z,3.40
2022-09-27T09:12:12.134Z,8.73
2022-09-27T09:15:27.305Z,4.68
2022-09-27T09:18:53.309Z,2.60
2022-09-27T09:22:29.212Z,4.90
2022-09-27T09:25:41.654Z,4.63
2022-09-27T09:28:58.671Z,3.90
2022-09-27T09:32:17.891Z,4.95
2022-09-27T09:35:26.176Z,1.77
2022-09-27T09:38:37.938Z,2.17
2022-09-27T09:41:47.182Z,4.38
2022-09-27T09:44:55.985Z,1.90
2022-09-27T09:48:06.978Z,2.97
2022-09-27T09:51:17.718Z,10.10
2022-09-27T09:54:25.892Z,33.58
2022-09-27T09:57:36.356Z,82.60
2022-09-27T10:00:41.794Z,153.65
2022-09-27T10:03:47.367Z,210.10
2022-09-27T10:06:53.151Z,223.32
2022-09-27T10:10:01.007Z,254.98
2022-09-27T10:13:34.778Z,259.42
2022-09-27T10:16:42.481Z,262.00
2022-09-27T10:19:48.546Z,232.18
2022-09-27T10:22:56.648Z,235.27
2022-09-27T10:26:21.573Z,245.68
2022-09-27T10:29:36.380Z,227.85
2022-09-27T10:32:43.062Z,233.88
2022-09-27T10:36:22.312Z,223.00
2022-09-27T10:39:26.642Z,227.13
2022-09-27T10:42:36.321Z,242.68
2022-09-27T10:45:40.618Z,222.50
2022-09-27T10:49:09.578Z,213.75
2022-09-27T10:52:18.121Z,228.50
2022-09-27T10:55:24.475Z,222.88
2022-09-27T10:58:32.891Z,209.50
2022-09-27T11:01:50.102Z,200.48
2022-09-27T11:05:11.219Z,203.10
2022-09-27T11:08:31.975Z,200.57
2022-09-27T11:11:46.332Z,200.23
2022-09-27T11:14:56.128Z,181.00
2022-09-27T11:18:09.239Z,199.60
2022-09-27T11:21:24.644Z,195.88
2022-09-27T11:24:50.396Z,181.40
2022-09-27T11:28:05.590Z,165.05
2022-09-27T11:31:24.962Z,141.18
2022-09-27T11:34:46.486Z,92.00
2022-09-27T11:38:00.020Z,62.63
2022-09-27T11:41:21.406Z,60.22
2022-09-27T11:44:42.369Z,55.67
2022-09-27T11:48:01.471Z,52.17
2022-09-27T11:51:14.167Z,59.28
2022-09-27T11:54:40.369Z,56.13
2022-09-27T11:57:52.276Z,57.88
2022-09-27T12:01:09.906Z,55.08
2022-09-27T12:04:46.857Z,49.55
2022-09-27T12:08:02.304Z,51.22
2022-09-27T12:11:17.270Z,48.70
2022-09-27T12:14:27.213Z,41.53
2022-09-27T12:17:35.319Z,44.47
2022-09-27T12:20:40.629Z,36.92
2022-09-27T12:23:48.448Z,47.88
2022-09-27T12:27:09.670Z,46.85
2022-09-27T12:30:15.070Z,34.10
2022-09-27T12:33:26.337Z,27.65
2022-09-27T12:36:38.420Z,21.20
2022-09-27T12:39:49.087Z,12.05
2022-09-27T12:43:06.713Z,8.15
2022-09-27T12:46:43.067Z,6.70
2022-09-27T12:50:01.258Z,5.97
2022-09-27T12:53:11.621Z,5.93
2022-09-27T12:56:32.426Z,8.32
2022-09-27T12:59:46.215Z,8.10
2022-09-27T13:03:26.371Z,10.80
2022-09-27T13:06:53.084Z,9.88
2022-09-27T13:10:31.904Z,7.10
2022-09-27T13:13:39.811Z,7.07
2022-09-27T13:16:46.716Z,10.27
2022-09-27T13:19:52.930Z,7.53
2022-09-27T13:22:57.581Z,8.77
2022-09-27T13:26:23.887Z,11.18
2022-09-27T13:29:34.456Z,9.10
2022-09-27T13:33:38.907Z,9.75
2022-09-27T13:36:43.946Z,8.75
2022-09-27T13:39:48.067Z,15.00
2022-09-27T13:43:35.823Z,10.88
2022-09-27T13:46:53.363Z,8.63
2022-09-27T13:50:03.598Z,11.75
2022-09-27T13:53:29.976Z,10.73
2022-09-27T13:56:54.571Z,11.57
2022-09-27T14:00:04.133Z,10.55
2022-09-27T14:03:54.974Z,8.85
2022-09-27T14:07:02.821Z,9.82
2022-09-27T14:10:15.336Z,10.27
2022-09-27T14:13:21.642Z,10.13
2022-09-27T14:16:36.931Z,9.73
2022-09-27T14:19:42.044Z,10.13
2022-09-27T14:22:54.770Z,7.90
2022-09-27T14:26:03.447Z,10.35
2022-09-27T14:29:17.565Z,10.82
2022-09-27T14:32:22.817Z,11.77
2022-09-27T14:35:51.843Z,12.65
2022-09-27T14:38:58.771Z,9.20
2022-09-27T14:42:21.570Z,8.95
2022-09-27T14:45:30.134Z,12.48
2022-09-27T14:48:34.720Z,12.55
2022-09-27T14:51:38.584Z,8.32
2022-09-27T14:54:41.703Z,8.57
2022-09-27T14:57:51.972Z,10.82
2022-09-27T15:00:55.412Z,8.90
2022-09-27T15:04:04.395Z,8.98
2022-09-27T15:07:07.405Z,9.10
2022-09-27T15:10:16.979Z,11.77
2022-09-27T15:13:21.937Z,10.45
2022-09-27T15:16:26.731Z,10.90
2022-09-27T15:19:30.752Z,11.18
2022-09-27T15:22:43.801Z,16.45
2022-09-27T15:26:01.011Z,9.13
2022-09-27T15:29:05.702Z,13.00
2022-09-27T15:32:15.608Z,10.98
2022-09-27T15:35:24.497Z,14.18
2022-09-27T15:38:30.952Z,15.07
2022-09-27T15:42:05.510Z,10.65
2022-09-27T15:45:28.851Z,10.82
2022-09-27T15:48:33.310Z,8.15
2022-09-27T15:51:40.779Z,9.82
2022-09-27T15:54:43.551Z,11.35
2022-09-27T15:57:52.348Z,11.80
2022-09-27T16:00:58.080Z,11.73
2022-09-27T16:04:01.403Z,10.55
2022-09-27T16:07:08.944Z,10.45
2022-09-27T16:10:15.632Z,10.45
2022-09-27T16:13:18.641Z,5.55
2022-09-27T16:16:23.674Z,9.85
2022-09-27T16:19:26.703Z,9.93
2022-09-27T16:22:29.482Z,5.13
2022-09-27T16:25:32.308Z,8.05
2022-09-27T16:28:35.503Z,7.65
2022-09-27T16:31:40.026Z,7.00
2022-09-27T16:34:42.951Z,7.57
2022-09-27T16:37:46.269Z,9.38
2022-09-27T16:40:49.161Z,9.27
2022-09-27T16:43:52.042Z,7.22
2022-09-27T16:46:56.262Z,8.57
2022-09-27T16:50:16.560Z,10.02
2022-09-27T16:53:19.415Z,6.88
2022-09-27T16:56:22.729Z,6.93
2022-09-27T16:59:25.879Z,7.45
2022-09-27T17:02:30.122Z,10.77
2022-09-27T17:05:33.012Z,7.28
2022-09-27T17:08:36.098Z,10.65
2022-09-27T17:11:38.966Z,8.02
2022-09-27T17:14:41.994Z,10.00
2022-09-27T17:17:50.057Z,10.63
2022-09-27T17:20:52.985Z,18.23
2022-09-27T17:23:56.546Z,7.78
2022-09-27T17:26:59.412Z,8.48
2022-09-27T17:30:02.205Z,10.52
2022-09-27T17:33:06.536Z,9.40
2022-09-27T17:36:09.607Z,5.72
2022-09-27T17:39:14.361Z,6.78
2022-09-27T17:42:18.870Z,7.53
2022-09-27T17:45:21.767Z,8.35
2022-09-27T17:48:43.429Z,6.90
2022-09-27T17:51:48.723Z,7.55
2022-09-27T17:54:54.351Z,5.07
2022-09-27T17:57:57.191Z,9.50
2022-09-27T18:01:03.185Z,9.20
2022-09-27T18:04:11.195Z,7.40
2022-09-27T18:07:14.065Z,8.88
2022-09-27T18:10:17.895Z,10.50
2022-09-27T18:13:21.950Z,7.70
2022-09-27T18:16:29.516Z,8.38
2022-09-27T18:19:33.928Z,6.93
2022-09-27T18:22:36.790Z,10.00
2022-09-27T18:25:40.713Z,7.35
2022-09-27T18:28:43.997Z,8.95
2022-09-27T18:31:49.007Z,8.43
2022-09-27T18:34:53.530Z,6.97
2022-09-27T18:37:56.460Z,5.93
2022-09-27T18:41:05.499Z,8.88
2022-09-27T18:44:08.375Z,6.68
2022-09-27T18:47:11.271Z,10.52
2022-09-27T18:50:15.651Z,9.50
2022-09-27T18:53:18.489Z,5.57
2022-09-27T18:56:21.323Z,7.65
2022-09-27T18:59:24.243Z,7.68
2022-09-27T19:02:27.158Z,9.57
2022-09-27T19:05:31.409Z,4.82
2022-09-27T19:08:34.735Z,9.32
2022-09-27T19:11:37.967Z,6.97
2022-09-27T19:14:41.342Z,6.97
2022-09-27T19:17:44.251Z,6.10
2022-09-27T19:20:48.529Z,6.97
2022-09-27T19:23:52.208Z,7.78
2022-09-27T19:26:57.207Z,8.40
2022-09-27T19:30:00.297Z,9.48
2022-09-27T19:33:03.692Z,5.85
2022-09-27T19:36:09.742Z,9.20
2022-09-27T19:39:12.611Z,7.40
2022-09-27T19:42:16.630Z,7.45
2022-09-27T19:45:19.507Z,10.02
2022-09-27T19:48:22.558Z,7.35
2022-09-27T19:51:28.125Z,6.38
2022-09-27T19:54:31.012Z,7.63
2022-09-27T19:57:33.886Z,6.15
2022-09-27T20:00:36.716Z,9.07
2022-09-27T20:03:41.775Z,9.80
2022-09-27T20:06:47.020Z,7.25
2022-09-27T20:09:49.926Z,7.05
2022-09-27T20:12:53.885Z,7.07
2022-09-27T20:16:02.472Z,11.68
2022-09-27T20:19:05.351Z,9.80
2022-09-27T20:22:09.593Z,7.43
2022-09-27T20:25:12.483Z,6.80
2022-09-27T20:28:15.565Z,6.72
2022-09-27T20:31:20.550Z,5.72
2022-09-27T20:34:23.682Z,6.80
2022-09-27T20:37:27.828Z,5.93
2022-09-27T20:40:30.825Z,4.07
2022-09-27T20:43:33.922Z,9.43
2022-09-27T20:46:38.332Z,4.85
2022-09-27T20:49:42.881Z,6.57
2022-09-27T20:52:47.070Z,6.47
2022-09-27T20:55:50.748Z,8.50
2022-09-27T20:58:55.947Z,6.60
2022-09-27T21:01:58.874Z,5.70
2022-09-27T21:05:01.814Z,7.03
2022-09-27T21:08:06.046Z,6.15
2022-09-27T21:11:10.961Z,6.13
2022-09-27T21:14:14.188Z,7.85
2022-09-27T21:17:18.610Z,5.60
2022-09-27T21:20:21.467Z,4.50
2022-09-27T21:23:25.726Z,7.10
2022-09-27T21:26:30.865Z,4.88
2022-09-27T21:29:33.783Z,4.93
2022-09-27T21:32:38.199Z,3.92
2022-09-27T21:35:41.124Z,4.85
2022-09-27T21:38:45.252Z,8.13
2022-09-27T21:41:48.046Z,5.88
2022-09-27T21:44:50.973Z,5.97
2022-09-27T21:47:53.929Z,5.18
2022-09-27T21:51:03.017Z,3.38
2022-09-27T21:54:10.150Z,3.53
2022-09-27T21:57:13.043Z,3.55
2022-09-27T22:00:16.651Z,2.83
2022-09-27T22:03:20.289Z,5.50
2022-09-27T22:06:24.872Z,5.78
2022-09-27T22:09:29.114Z,7.18
2022-09-27T22:12:31.958Z,4.50
2022-09-27T22:15:36.071Z,3.45
2022-09-27T22:18:39.845Z,3.85
2022-09-27T22:21:43.147Z,4.32
2022-09-27T22:24:47.345Z,3.83
2022-09-27T22:27:50.486Z,4.13
2022-09-27T22:30:53.383Z,4.95
2022-09-27T22:33:57.778Z,5.03
2022-09-27T22:37:02.084Z,3.58
2022-09-27T22:40:07.260Z,4.93
2022-09-27T22:43:10.049Z,6.30
2022-09-27T22:46:13.058Z,5.93
2022-09-27T22:49:16.135Z,3.88
2022-09-27T22:52:19.053Z,4.70
2022-09-27T22:55:23.306Z,5.22
2022-09-27T22:58:26.301Z,6.55
2022-09-27T23:01:29.116Z,4.53
2022-09-27T23:04:32.087Z,3.50
2022-09-27T23:07:34.879Z,4.97
2022-09-27T23:10:40.281Z,6.82
2022-09-27T23:13:44.638Z,3.40
2022-09-27T23:16:47.491Z,3.50
2022-09-27T23:19:50.394Z,3.90
2022-09-27T23:22:53.808Z,4.85
2022-09-27T23:26:02.231Z,4.75
2022-09-27T23:29:05.169Z,3.63
2022-09-27T23:32:07.994Z,4.35
2022-09-27T23:35:10.831Z,4.30
2022-09-27T23:38:14.174Z,4.18
2022-09-27T23:41:18.988Z,5.72
2022-09-27T23:44:22.903Z,2.47
2022-09-27T23:47:25.702Z,3.63
2022-09-27T23:50:28.492Z,5.80
2022-09-27T23:53:31.544Z,4.20
2022-09-27T23:56:35.677Z,3.75
2022-09-27T23:59:38.793Z,4.18
